createdAt,value
2023-02-21T00:01:18.991Z,98078.13
2023-02-21T00:02:40.563Z,98064.87
2023-02-21T00:04:05.297Z,98073.19
2023-02-21T00:05:26.680Z,98069.56
2023-02-21T00:06:49.590Z,98071.63
2023-02-21T00:08:11.235Z,98070.09
2023-02-21T00:09:33.302Z,98074.25
2023-02-21T00:10:54.949Z,98066.97
2023-02-21T00:12:16.460Z,98062.06
2023-02-21T00:13:37.988Z,98064.91
2023-02-21T00:14:59.748Z,98062.34
2023-02-21T00:16:21.565Z,98054.28
2023-02-21T00:17:43.181Z,98046.75
2023-02-21T00:19:05.031Z,98054.81
2023-02-21T00:20:27.464Z,98055.59
2023-02-21T00:21:49.174Z,98057.44
2023-02-21T00:23:12.215Z,98050.66
2023-02-21T00:24:38.270Z,98056.38
2023-02-21T00:26:00.031Z,98054.84
2023-02-21T00:27:22.594Z,98043.69
2023-02-21T00:28:44.683Z,98059.53
2023-02-21T00:30:07.978Z,98062.12
2023-02-21T00:31:29.193Z,98059.28
2023-02-21T00:32:51.040Z,98054.84
2023-02-21T00:34:12.846Z,98061.88
2023-02-21T00:35:34.714Z,98059.00
2023-02-21T00:36:56.404Z,98062.91
2023-02-21T00:38:18.100Z,98060.81
2023-02-21T00:39:39.635Z,98065.75
2023-02-21T00:41:01.417Z,98056.16
2023-02-21T00:42:23.110Z,98057.69
2023-02-21T00:43:52.622Z,98063.16
2023-02-21T00:45:14.419Z,98053.81
2023-02-21T00:46:36.581Z,98053.81
2023-02-21T00:47:58.431Z,98054.06
2023-02-21T00:49:20.781Z,98054.56
2023-02-21T00:50:42.629Z,98063.66
2023-02-21T00:52:03.842Z,98054.59
2023-02-21T00:53:25.051Z,98057.69
2023-02-21T00:54:46.826Z,98058.72
2023-02-21T00:56:08.800Z,98046.25
2023-02-21T00:57:30.151Z,98044.97
2023-02-21T00:58:52.768Z,98047.56
2023-02-21T01:00:14.794Z,98051.69
2023-02-21T01:01:36.906Z,98048.56
2023-02-21T01:02:58.566Z,98053.25
2023-02-21T01:04:20.347Z,98048.81
2023-02-21T01:05:42.123Z,98036.09
2023-02-21T01:07:03.848Z,98048.81
2023-02-21T01:08:25.603Z,98048.03
2023-02-21T01:09:47.301Z,98039.75
2023-02-21T01:11:09.148Z,98042.09
2023-02-21T01:12:31.464Z,98041.28
2023-02-21T01:13:52.869Z,98041.28
2023-02-21T01:15:14.460Z,98046.72
2023-02-21T01:16:36.035Z,98043.09
2023-02-21T01:17:57.707Z,98051.66
2023-02-21T01:19:19.468Z,98045.44
2023-02-21T01:20:40.861Z,98043.88
2023-02-21T01:22:02.423Z,98043.88
2023-02-21T01:23:23.708Z,98049.28
2023-02-21T01:24:44.973Z,98047.19
2023-02-21T01:26:06.391Z,98049.31
2023-02-21T01:27:28.555Z,98048.03
2023-02-21T01:28:50.474Z,98040.47
2023-02-21T01:30:12.017Z,98046.97
2023-02-21T01:31:38.980Z,98044.59
2023-02-21T01:33:00.428Z,98049.81
2023-02-21T01:34:21.983Z,98040.50
2023-02-21T01:35:43.551Z,98046.19
2023-02-21T01:37:05.223Z,98040.75
2023-02-21T01:38:26.906Z,98043.09
2023-02-21T01:39:49.020Z,98041.50
2023-02-21T01:41:10.563Z,98041.00
2023-02-21T01:42:32.020Z,98036.09
2023-02-21T01:43:53.733Z,98037.66
2023-02-21T01:45:40.324Z,98025.72
2023-02-21T01:47:02.191Z,98028.06
2023-02-21T01:48:25.983Z,98037.13
2023-02-21T01:49:48.094Z,98035.59
2023-02-21T01:51:13.054Z,98045.47
2023-02-21T01:52:36.269Z,98046.47
2023-02-21T01:53:58.461Z,98042.84
2023-02-21T01:55:20.338Z,98036.34
2023-02-21T01:56:42.645Z,98024.16
2023-02-21T01:58:05.489Z,98027.78
2023-02-21T01:59:28.883Z,98017.16
2023-02-21T02:00:50.644Z,98023.91
2023-02-21T02:02:23.753Z,98015.56
2023-02-21T02:03:46.010Z,98006.22
2023-02-21T02:05:10.146Z,98008.03
2023-02-21T02:06:35.645Z,98012.16
2023-02-21T02:07:57.659Z,98012.41
2023-02-21T02:09:33.424Z,98006.72
2023-02-21T02:10:55.592Z,98007.47
2023-02-21T02:12:37.552Z,98003.03
2023-02-21T02:13:54.660Z,98002.81
2023-02-21T02:15:24.328Z,98010.81
2023-02-21T02:16:49.899Z,98003.53
2023-02-21T02:17:58.684Z,98008.72
2023-02-21T02:19:10.498Z,98006.66
2023-02-21T02:20:29.815Z,97993.19
2023-02-21T02:21:47.365Z,98000.47
2023-02-21T02:23:28.751Z,98011.84
2023-02-21T02:24:34.063Z,98005.38
2023-02-21T02:25:46.176Z,97998.13
2023-02-21T02:27:26.837Z,98005.41
2023-02-21T02:28:48.688Z,98001.75
2023-02-21T02:30:12.032Z,98001.25
2023-02-21T02:32:14.582Z,97992.69
2023-02-21T02:33:21.542Z,97993.22
2023-02-21T02:35:01.839Z,97996.87
2023-02-21T02:36:35.075Z,97990.38
2023-02-21T02:37:45.768Z,97991.44
2023-02-21T02:39:26.648Z,97988.03
2023-02-21T02:40:46.317Z,97987.53
2023-02-21T02:42:28.020Z,97988.81
2023-02-21T02:43:35.642Z,97978.69
2023-02-21T02:44:45.192Z,97981.03
2023-02-21T02:45:57.290Z,97982.84
2023-02-21T02:47:05.307Z,97982.88
2023-02-21T02:48:38.700Z,97982.88
2023-02-21T02:49:45.565Z,97980.03
2023-02-21T02:50:51.444Z,97981.31
2023-02-21T02:51:55.070Z,97977.69
2023-02-21T02:53:02.875Z,97983.66
2023-02-21T02:54:06.057Z,97982.09
2023-02-21T02:55:40.976Z,97980.81
2023-02-21T02:56:44.555Z,97990.66
2023-02-21T02:57:49.136Z,97981.59
2023-02-21T02:58:58.481Z,97985.72
2023-02-21T03:00:01.557Z,97977.69
2023-02-21T03:01:28.380Z,97986.75
2023-02-21T03:02:38.103Z,97983.66
2023-02-21T03:03:59.401Z,97977.94
2023-02-21T03:05:31.002Z,97984.44
2023-02-21T03:06:51.882Z,97973.00
2023-02-21T03:08:15.568Z,97979.50
2023-02-21T03:09:19.505Z,97975.09
2023-02-21T03:10:37.536Z,97978.72
2023-02-21T03:11:51.036Z,97981.06
2023-02-21T03:13:05.891Z,97972.75
2023-02-21T03:14:19.169Z,97979.00
2023-02-21T03:15:28.529Z,97978.19
2023-02-21T03:16:44.337Z,97978.22
2023-02-21T03:17:54.674Z,97982.63
2023-02-21T03:19:04.898Z,97981.31
2023-02-21T03:20:10.102Z,97977.47
2023-02-21T03:21:19.178Z,97982.91
2023-02-21T03:22:27.693Z,97985.75
2023-02-21T03:23:35.550Z,97987.56
2023-02-21T03:24:41.147Z,97988.09
2023-02-21T03:25:46.284Z,97990.94
2023-02-21T03:26:54.914Z,97989.41
2023-02-21T03:28:00.667Z,97996.41
2023-02-21T03:29:05.256Z,97996.16
2023-02-21T03:30:09.910Z,97994.34
2023-02-21T03:31:17.096Z,97996.69
2023-02-21T03:32:32.063Z,97989.87
2023-02-21T03:33:35.417Z,97991.97
2023-02-21T03:34:40.255Z,97990.38
2023-02-21T03:35:43.858Z,97995.81
2023-02-21T03:36:47.537Z,97988.00
2023-02-21T03:37:53.812Z,97986.97
2023-02-21T03:38:56.793Z,97999.44
2023-02-21T03:40:01.074Z,98002.03
2023-02-21T03:41:04.384Z,97985.88
2023-02-21T03:42:07.380Z,97988.22
2023-02-21T03:43:10.419Z,97988.69
2023-02-21T03:44:13.585Z,97990.41
2023-02-21T03:45:17.045Z,97982.03
2023-02-21T03:46:19.962Z,97988.56
2023-02-21T03:47:22.913Z,97978.31
2023-02-21T03:48:31.884Z,97970.41
2023-02-21T03:49:35.374Z,97957.06
2023-02-21T03:50:38.546Z,97962.56
2023-02-21T03:51:41.728Z,97964.31
2023-02-21T03:52:44.750Z,97966.94
2023-02-21T03:53:47.813Z,97972.41
2023-02-21T03:54:50.842Z,97965.63
2023-02-21T03:55:53.956Z,97969.03
2023-02-21T03:56:57.132Z,97973.75
2023-02-21T03:58:00.363Z,97967.00
2023-02-21T03:59:03.762Z,97968.72
2023-02-21T04:00:07.266Z,97967.41
2023-02-21T04:01:16.246Z,97963.50
2023-02-21T04:02:19.874Z,97960.59
2023-02-21T04:03:22.858Z,97968.38
2023-02-21T04:04:25.875Z,97970.72
2023-02-21T04:05:28.835Z,97961.34
2023-02-21T04:06:31.635Z,97974.69
2023-02-21T04:07:34.601Z,97978.06
2023-02-21T04:08:38.419Z,97971.84
2023-02-21T04:09:41.638Z,97977.00
2023-02-21T04:10:51.993Z,97974.13
2023-02-21T04:11:55.885Z,97968.91
2023-02-21T04:12:58.912Z,97960.34
2023-02-21T04:14:01.996Z,97957.19
2023-02-21T04:15:05.154Z,97964.13
2023-02-21T04:16:08.329Z,97969.38
2023-02-21T04:17:11.436Z,97962.03
2023-02-21T04:18:14.599Z,97971.91
2023-02-21T04:19:17.767Z,97972.16
2023-02-21T04:20:21.269Z,97964.31
2023-02-21T04:21:24.345Z,97972.44
2023-02-21T04:22:27.544Z,97968.06
2023-02-21T04:23:30.573Z,97970.62
2023-02-21T04:24:33.596Z,97968.28
2023-02-21T04:25:36.559Z,97969.31
2023-02-21T04:26:39.670Z,97968.75
2023-02-21T04:27:42.708Z,97960.44
2023-02-21T04:28:45.667Z,97949.69
2023-02-21T04:29:49.135Z,97958.31
2023-02-21T04:30:52.382Z,97952.28
2023-02-21T04:31:56.041Z,97956.69
2023-02-21T04:32:59.151Z,97948.31
2023-02-21T04:34:11.234Z,97949.88
2023-02-21T04:35:15.013Z,97951.25
2023-02-21T04:36:18.408Z,97951.44
2023-02-21T04:37:21.625Z,97947.56
2023-02-21T04:38:24.561Z,97948.72
2023-02-21T04:39:27.802Z,97944.53
2023-02-21T04:40:30.906Z,97949.81
2023-02-21T04:41:34.990Z,97949.22
2023-02-21T04:42:37.931Z,97945.34
2023-02-21T04:43:43.729Z,97948.38
2023-02-21T04:44:58.276Z,97957.00
2023-02-21T04:46:03.154Z,97940.84
2023-02-21T04:47:06.093Z,97954.41
2023-02-21T04:48:09.194Z,97953.38
2023-02-21T04:49:15.703Z,97959.16
2023-02-21T04:50:18.791Z,97960.09
2023-02-21T04:51:24.080Z,97960.16
2023-02-21T04:52:27.420Z,97951.53
2023-02-21T04:53:30.485Z,97957.09
2023-02-21T04:54:33.437Z,97957.94
2023-02-21T04:55:36.379Z,97958.47
2023-02-21T04:56:40.083Z,97959.03
2023-02-21T04:57:43.113Z,97953.75
2023-02-21T04:58:46.325Z,97956.44
2023-02-21T04:59:49.363Z,97960.63
2023-02-21T05:00:52.997Z,97967.13
2023-02-21T05:01:56.096Z,97960.06
2023-02-21T05:02:59.165Z,97965.81
2023-02-21T05:04:02.540Z,97960.16
2023-02-21T05:05:05.821Z,97961.69
2023-02-21T05:06:09.160Z,97960.34
2023-02-21T05:07:12.054Z,97949.97
2023-02-21T05:08:14.957Z,97954.03
2023-02-21T05:09:17.834Z,97951.22
2023-02-21T05:10:21.218Z,97951.69
2023-02-21T05:11:25.034Z,97952.75
2023-02-21T05:12:27.982Z,97948.31
2023-02-21T05:13:31.081Z,97954.34
2023-02-21T05:14:33.881Z,97953.63
2023-02-21T05:15:36.794Z,97950.94
2023-02-21T05:16:39.759Z,97952.53
2023-02-21T05:17:42.864Z,97957.75
2023-02-21T05:18:47.115Z,97962.78
2023-02-21T05:19:50.097Z,97956.91
2023-02-21T05:20:53.109Z,97958.87
2023-02-21T05:21:58.378Z,97953.75
2023-02-21T05:23:11.754Z,97962.69
2023-02-21T05:24:16.529Z,97954.91
2023-02-21T05:25:22.749Z,97973.37
2023-02-21T05:26:30.130Z,97962.62
2023-02-21T05:27:33.162Z,97959.06
2023-02-21T05:28:38.322Z,97952.28
2023-02-21T05:29:50.613Z,97957.19
2023-02-21T05:30:53.893Z,97959.44
2023-02-21T05:31:56.917Z,97959.03
2023-02-21T05:32:59.912Z,97954.19
2023-02-21T05:34:02.836Z,97962.53
2023-02-21T05:35:06.448Z,97964.09
2023-02-21T05:36:09.631Z,97952.63
2023-02-21T05:37:13.842Z,97958.41
2023-02-21T05:38:20.834Z,97949.78
2023-02-21T05:39:23.707Z,97952.72
2023-02-21T05:40:27.080Z,97949.28
2023-02-21T05:41:30.104Z,97949.94
2023-02-21T05:42:33.644Z,97933.75
2023-02-21T05:43:36.650Z,97939.50
2023-02-21T05:44:39.771Z,97938.22
2023-02-21T05:45:42.883Z,97936.91
2023-02-21T05:46:46.494Z,97929.91
2023-02-21T05:47:49.537Z,97939.69
2023-02-21T05:48:54.060Z,97935.81
2023-02-21T05:49:57.129Z,97933.94
2023-02-21T05:51:00.161Z,97932.12
2023-02-21T05:52:05.305Z,97938.62
2023-02-21T05:53:10.592Z,97941.66
2023-02-21T05:54:20.047Z,97945.28
2023-02-21T05:55:23.334Z,97947.91
2023-02-21T05:56:26.394Z,97940.09
2023-02-21T05:57:29.321Z,97945.03
2023-02-21T05:58:33.787Z,97942.16
2023-02-21T05:59:38.041Z,97943.16
2023-02-21T06:00:41.285Z,97944.16
2023-02-21T06:01:44.337Z,97947.81
2023-02-21T06:02:47.362Z,97947.06
2023-02-21T06:03:50.570Z,97953.38
2023-02-21T06:04:53.590Z,97957.31
2023-02-21T06:05:56.602Z,97957.59
2023-02-21T06:06:59.586Z,97954.91
2023-02-21T06:08:02.611Z,97963.44
2023-02-21T06:09:06.946Z,97962.16
2023-02-21T06:10:10.435Z,97962.25
2023-02-21T06:11:15.540Z,97969.84
2023-02-21T06:12:18.957Z,97971.06
2023-02-21T06:13:22.096Z,97969.81
2023-02-21T06:14:25.395Z,97973.00
2023-02-21T06:15:28.676Z,97977.38
2023-02-21T06:16:39.223Z,97979.75
2023-02-21T06:17:42.977Z,97983.13
2023-02-21T06:18:49.648Z,97981.37
2023-02-21T06:19:52.893Z,97976.94
2023-02-21T06:20:55.756Z,97985.97
2023-02-21T06:21:59.411Z,97979.78
2023-02-21T06:23:02.274Z,97982.38
2023-02-21T06:24:05.465Z,97976.66
2023-02-21T06:25:09.257Z,97979.00
2023-02-21T06:26:13.184Z,97988.09
2023-02-21T06:27:16.350Z,97989.31
2023-02-21T06:28:19.639Z,97981.50
2023-02-21T06:29:22.780Z,97982.09
2023-02-21T06:30:25.923Z,97975.47
2023-02-21T06:31:29.020Z,97983.34
2023-02-21T06:32:32.033Z,97991.84
2023-02-21T06:33:35.357Z,97993.69
2023-02-21T06:34:38.562Z,97984.34
2023-02-21T06:35:41.460Z,97988.06
2023-02-21T06:36:44.352Z,97978.34
2023-02-21T06:37:47.330Z,97991.84
2023-02-21T06:38:52.737Z,97986.09
2023-02-21T06:39:55.962Z,97991.34
2023-02-21T06:40:59.286Z,97994.41
2023-02-21T06:42:02.168Z,97993.16
2023-02-21T06:43:05.097Z,97995.97
2023-02-21T06:44:08.017Z,97998.25
2023-02-21T06:45:10.846Z,98002.44
2023-02-21T06:46:21.850Z,98007.38
2023-02-21T06:47:24.678Z,97999.66
2023-02-21T06:48:27.882Z,98003.47
2023-02-21T06:49:30.928Z,98005.78
2023-02-21T06:50:34.547Z,98000.50
2023-02-21T06:51:39.451Z,98006.25
2023-02-21T06:52:42.427Z,97990.06
2023-02-21T06:53:49.358Z,98004.16
2023-02-21T06:54:52.821Z,98011.66
2023-02-21T06:55:55.722Z,98001.59
2023-02-21T06:57:00.330Z,98007.38
2023-02-21T06:58:03.999Z,98006.03
2023-02-21T06:59:07.285Z,97999.50
2023-02-21T07:00:11.076Z,98008.56
2023-02-21T07:01:15.013Z,98008.22
2023-02-21T07:02:20.812Z,97999.47
2023-02-21T07:03:24.499Z,98011.34
2023-02-21T07:04:27.808Z,98004.03
2023-02-21T07:05:34.829Z,98009.63
2023-02-21T07:06:37.780Z,98005.38
2023-02-21T07:07:40.955Z,98007.44
2023-02-21T07:08:45.392Z,98007.78
2023-02-21T07:09:48.708Z,98007.44
2023-02-21T07:10:51.689Z,98009.19
2023-02-21T07:11:54.732Z,98006.72
2023-02-21T07:12:57.678Z,98015.66
2023-02-21T07:14:00.843Z,98006.41
2023-02-21T07:15:04.238Z,98013.47
2023-02-21T07:16:07.694Z,98015.16
2023-02-21T07:17:10.859Z,98017.38
2023-02-21T07:18:13.869Z,98015.78
2023-02-21T07:20:19.389Z,98012.22
2023-02-21T07:21:22.648Z,98030.81
2023-02-21T07:22:26.628Z,98015.31
2023-02-21T07:23:29.482Z,98012.91
2023-02-21T07:24:32.657Z,98026.37
2023-02-21T07:25:35.620Z,98028.16
2023-02-21T07:26:39.091Z,98018.84
2023-02-21T07:27:42.019Z,98019.63
2023-02-21T07:28:49.098Z,98014.13
2023-02-21T07:29:52.063Z,98023.62
2023-02-21T07:30:55.391Z,98022.94
2023-02-21T07:31:58.446Z,98027.69
2023-02-21T07:33:01.366Z,98037.47
2023-02-21T07:34:05.220Z,98038.06
2023-02-21T07:35:08.842Z,98038.66
2023-02-21T07:36:11.870Z,98029.63
2023-02-21T07:37:15.481Z,98035.53
2023-02-21T07:38:29.288Z,98024.78
2023-02-21T07:39:32.799Z,98037.09
2023-02-21T07:40:36.268Z,98030.50
2023-02-21T07:41:39.292Z,98033.69
2023-02-21T07:42:43.980Z,98033.41
2023-02-21T07:43:46.940Z,98037.19
2023-02-21T07:44:49.920Z,98029.13
2023-02-21T07:45:53.472Z,98019.91
2023-02-21T07:46:57.706Z,98030.78
2023-02-21T07:48:00.576Z,98023.47
2023-02-21T07:49:03.754Z,98024.31
2023-02-21T07:50:07.840Z,98024.63
2023-02-21T07:51:11.359Z,98029.19
2023-02-21T07:52:14.510Z,98018.41
2023-02-21T07:53:17.762Z,98022.66
2023-02-21T07:54:20.862Z,98032.06
2023-02-21T07:55:23.863Z,98020.72
2023-02-21T07:56:27.369Z,98026.53
2023-02-21T07:57:30.414Z,98034.28
2023-02-21T07:58:37.592Z,98041.53
2023-02-21T07:59:40.564Z,98031.62
2023-02-21T08:00:43.751Z,98042.34
2023-02-21T08:01:47.910Z,98032.97
2023-02-21T08:02:51.915Z,98022.88
2023-02-21T08:03:54.717Z,98027.87
2023-02-21T08:04:57.727Z,98026.56
2023-02-21T08:06:00.912Z,98024.72
2023-02-21T08:07:05.150Z,98028.69
2023-02-21T08:08:09.613Z,98019.09
2023-02-21T08:09:12.509Z,98019.03
2023-02-21T08:10:24.308Z,98018.69
2023-02-21T08:11:27.325Z,98034.44
2023-02-21T08:12:30.208Z,98024.50
2023-02-21T08:13:33.197Z,98019.91
2023-02-21T08:14:36.092Z,98011.97
2023-02-21T08:15:39.174Z,98027.97
2023-02-21T08:16:42.174Z,98019.50
2023-02-21T08:17:48.027Z,98019.50
2023-02-21T08:18:51.360Z,98017.97
2023-02-21T08:19:54.365Z,98020.25
2023-02-21T08:20:57.678Z,98034.66
2023-02-21T08:22:00.505Z,98000.75
2023-02-21T08:23:03.491Z,98034.00
2023-02-21T08:24:06.471Z,98031.84
2023-02-21T08:25:15.555Z,98030.53
2023-02-21T08:26:18.451Z,98029.41
2023-02-21T08:27:21.634Z,98036.53
2023-02-21T08:28:26.579Z,98034.06
2023-02-21T08:29:29.724Z,98042.06
2023-02-21T08:30:32.644Z,98043.28
2023-02-21T08:31:37.206Z,98033.63
2023-02-21T08:32:40.635Z,98042.50
2023-02-21T08:33:44.572Z,98041.44
2023-02-21T08:34:48.948Z,98037.47
2023-02-21T08:35:51.951Z,98038.69
2023-02-21T08:36:55.528Z,98044.69
2023-02-21T08:38:03.719Z,98043.00
2023-02-21T08:39:08.103Z,98047.50
2023-02-21T08:40:12.079Z,98039.63
2023-02-21T08:41:17.113Z,98040.25
2023-02-21T08:42:20.580Z,98052.59
2023-02-21T08:43:24.310Z,98037.00
2023-02-21T08:44:27.278Z,98034.81
2023-02-21T08:45:30.759Z,98047.81
2023-02-21T08:46:35.130Z,98042.41
2023-02-21T08:47:38.666Z,98049.50
2023-02-21T08:48:41.856Z,98042.41
2023-02-21T08:49:47.702Z,98043.03
2023-02-21T08:50:54.272Z,98038.34
2023-02-21T08:51:57.498Z,98050.13
2023-02-21T08:53:00.664Z,98035.88
2023-02-21T08:54:04.660Z,98041.59
2023-02-21T08:55:08.542Z,98035.97
2023-02-21T08:56:11.577Z,98038.22
2023-02-21T08:57:14.849Z,98036.47
2023-02-21T08:58:17.983Z,98032.06
2023-02-21T08:59:21.117Z,98039.75
2023-02-21T09:00:28.592Z,98028.28
2023-02-21T09:01:36.085Z,98040.25
2023-02-21T09:02:42.462Z,98031.66
2023-02-21T09:03:45.559Z,98042.87
2023-02-21T09:04:49.480Z,98031.72
2023-02-21T09:05:52.434Z,98045.13
2023-02-21T09:06:56.556Z,98037.34
2023-02-21T09:08:01.892Z,98041.38
2023-02-21T09:09:05.255Z,98032.53
2023-02-21T09:10:10.930Z,98038.03
2023-02-21T09:11:15.044Z,98040.34
2023-02-21T09:12:18.691Z,98040.53
2023-02-21T09:13:22.698Z,98048.13
2023-02-21T09:14:25.748Z,98046.88
2023-02-21T09:15:28.895Z,98056.53
2023-02-21T09:16:33.013Z,98049.53
2023-02-21T09:17:36.428Z,98046.56
2023-02-21T09:18:39.722Z,98038.72
2023-02-21T09:19:42.704Z,98045.50
2023-02-21T09:20:52.379Z,98042.97
2023-02-21T09:22:00.734Z,98038.03
2023-02-21T09:23:04.625Z,98042.31
2023-02-21T09:24:07.772Z,98050.47
2023-02-21T09:25:13.434Z,98052.56
2023-02-21T09:26:17.747Z,98054.16
2023-02-21T09:27:20.635Z,98039.47
2023-02-21T09:28:23.705Z,98044.09
2023-02-21T09:29:31.692Z,98049.87
2023-02-21T09:30:40.402Z,98042.66
2023-02-21T09:31:43.461Z,98044.84
2023-02-21T09:32:46.513Z,98043.56
2023-02-21T09:33:49.399Z,98030.09
2023-02-21T09:34:52.535Z,98040.66
2023-02-21T09:35:55.423Z,98038.22
2023-02-21T09:36:59.871Z,98048.31
2023-02-21T09:38:03.802Z,98039.97
2023-02-21T09:39:07.374Z,98033.03
2023-02-21T09:40:28.027Z,98042.03
2023-02-21T09:41:31.137Z,98025.06
2023-02-21T09:42:36.633Z,98038.94
2023-02-21T09:43:43.572Z,98029.88
2023-02-21T09:44:48.097Z,98039.50
2023-02-21T09:45:56.954Z,98036.06
2023-02-21T09:47:05.395Z,98042.16
2023-02-21T09:48:14.791Z,98029.78
2023-02-21T09:49:27.307Z,98045.62
2023-02-21T09:50:35.354Z,98040.69
2023-02-21T09:51:42.113Z,98040.91
2023-02-21T09:52:46.025Z,98041.97
2023-02-21T09:53:49.599Z,98039.03
2023-02-21T09:54:57.209Z,98040.53
2023-02-21T09:56:05.448Z,98047.06
2023-02-21T09:57:14.419Z,98042.00
2023-02-21T09:58:20.401Z,98037.84
2023-02-21T09:59:23.468Z,98032.38
2023-02-21T10:00:38.369Z,98044.66
2023-02-21T10:02:16.491Z,98029.78
2023-02-21T10:03:28.956Z,98035.31
2023-02-21T10:04:53.701Z,98031.22
2023-02-21T10:06:12.791Z,98044.31
2023-02-21T10:07:28.476Z,98061.38
2023-02-21T10:08:45.232Z,98046.75
2023-02-21T10:10:05.469Z,98055.06
2023-02-21T10:11:31.623Z,98054.66
2023-02-21T10:12:41.591Z,98073.94
2023-02-21T10:14:22.311Z,98067.31
2023-02-21T10:15:46.145Z,98044.31
2023-02-21T10:17:05.834Z,98057.03
2023-02-21T10:18:45.419Z,98053.50
2023-02-21T10:19:53.797Z,98048.91
2023-02-21T10:21:01.917Z,98041.47
2023-02-21T10:22:25.790Z,98034.66
2023-02-21T10:23:47.237Z,98039.75
2023-02-21T10:24:50.875Z,98039.28
2023-02-21T10:26:00.247Z,98035.66
2023-02-21T10:27:07.553Z,98032.19
2023-02-21T10:28:19.604Z,98026.78
2023-02-21T10:29:39.605Z,98029.97
2023-02-21T10:30:43.587Z,98046.12
2023-02-21T10:31:47.648Z,98028.88
2023-02-21T10:32:50.726Z,98033.13
2023-02-21T10:33:53.908Z,98029.56
2023-02-21T10:34:59.018Z,98034.09
2023-02-21T10:36:02.004Z,98024.69
2023-02-21T10:37:30.139Z,98030.53
2023-02-21T10:38:41.172Z,98032.44
2023-02-21T10:39:50.165Z,98027.22
2023-02-21T10:41:00.410Z,98018.47
2023-02-21T10:42:03.862Z,98031.31
2023-02-21T10:43:26.221Z,98027.09
2023-02-21T10:44:32.946Z,98027.75
2023-02-21T10:45:57.710Z,98023.31
2023-02-21T10:47:07.270Z,98023.50
2023-02-21T10:48:11.752Z,98019.44
2023-02-21T10:49:29.438Z,98029.44
2023-02-21T10:50:52.806Z,98019.37
2023-02-21T10:52:12.899Z,98024.78
2023-02-21T10:53:39.684Z,98028.41
2023-02-21T10:54:42.903Z,98022.38
2023-02-21T10:55:47.994Z,98031.25
2023-02-21T10:56:53.456Z,98028.63
2023-02-21T10:57:58.933Z,98042.22
2023-02-21T10:59:05.786Z,98034.81
2023-02-21T11:00:10.833Z,98026.03
2023-02-21T11:01:19.281Z,98032.03
2023-02-21T11:02:35.019Z,98037.09
2023-02-21T11:03:43.302Z,98030.34
2023-02-21T11:04:46.237Z,98031.22
2023-02-21T11:05:58.150Z,98024.22
2023-02-21T11:07:09.077Z,98038.25
2023-02-21T11:08:13.473Z,98039.88
2023-02-21T11:09:39.974Z,98039.81
2023-02-21T11:10:44.356Z,98034.84
2023-02-21T11:11:47.822Z,98041.94
2023-02-21T11:13:03.783Z,98036.38
2023-02-21T11:14:19.022Z,98048.75
2023-02-21T11:15:22.143Z,98038.56
2023-02-21T11:16:25.359Z,98036.47
2023-02-21T11:17:29.425Z,98037.47
2023-02-21T11:18:32.875Z,98031.84
2023-02-21T11:19:48.842Z,98042.75
2023-02-21T11:20:53.620Z,98040.69
2023-02-21T11:21:57.960Z,98055.91
2023-02-21T11:23:00.993Z,98029.94
2023-02-21T11:24:06.926Z,98024.47
2023-02-21T11:25:20.274Z,98022.59
2023-02-21T11:26:23.277Z,98029.19
2023-02-21T11:27:28.360Z,98032.06
2023-02-21T11:28:31.717Z,98031.25
2023-02-21T11:29:34.874Z,98049.44
2023-02-21T11:30:41.447Z,98021.88
2023-02-21T11:31:46.085Z,98042.97
2023-02-21T11:32:54.887Z,98038.91
2023-02-21T11:34:07.073Z,98043.03
2023-02-21T11:35:39.598Z,98039.72
2023-02-21T11:36:46.165Z,98043.00
2023-02-21T11:38:01.357Z,98040.06
2023-02-21T11:39:23.816Z,98045.38
2023-02-21T11:40:33.217Z,98041.47
2023-02-21T11:41:46.511Z,98040.84
2023-02-21T11:42:49.664Z,98044.81
2023-02-21T11:43:54.444Z,98049.09
2023-02-21T11:45:24.620Z,98040.97
2023-02-21T11:46:45.634Z,98042.84
2023-02-21T11:48:07.462Z,98048.16
2023-02-21T11:49:36.865Z,98045.19
2023-02-21T11:50:50.029Z,98040.91
2023-02-21T11:52:00.763Z,98034.59
2023-02-21T11:53:22.654Z,98034.94
2023-02-21T11:54:30.328Z,98044.38
2023-02-21T11:55:35.333Z,98042.87
2023-02-21T11:56:38.400Z,98022.16
2023-02-21T11:58:21.173Z,98039.06
2023-02-21T11:59:43.269Z,98041.66
2023-02-21T12:01:02.385Z,98027.16
2023-02-21T12:02:23.221Z,98044.63
2023-02-21T12:04:16.570Z,98044.44
2023-02-21T12:05:28.541Z,98044.00
2023-02-21T12:07:13.778Z,98045.72
2023-02-21T12:08:38.886Z,98039.06
2023-02-21T12:09:56.745Z,98039.56
2023-02-21T12:11:24.518Z,98045.13
2023-02-21T12:12:47.556Z,98049.22
2023-02-21T12:13:57.144Z,98033.22
2023-02-21T12:15:16.091Z,98040.84
2023-02-21T12:16:43.405Z,98051.63
2023-02-21T12:18:24.660Z,98042.84
2023-02-21T12:19:36.995Z,98038.88
2023-02-21T12:20:50.591Z,98047.13
2023-02-21T12:22:24.243Z,98048.84
2023-02-21T12:24:01.408Z,98041.34
2023-02-21T12:25:21.066Z,98054.22
2023-02-21T12:26:43.975Z,98053.09
2023-02-21T12:28:14.813Z,98055.63
2023-02-21T12:29:36.764Z,98064.47
2023-02-21T12:30:50.622Z,98066.97
2023-02-21T12:32:29.703Z,98055.25
2023-02-21T12:33:59.392Z,98044.66
2023-02-21T12:35:50.289Z,98055.88
2023-02-21T12:36:58.645Z,98045.50
2023-02-21T12:38:10.882Z,98040.16
2023-02-21T12:39:35.068Z,98046.38
2023-02-21T12:40:47.086Z,98044.75
2023-02-21T12:42:14.580Z,98041.25
2023-02-21T12:43:17.564Z,98042.66
2023-02-21T12:44:27.403Z,98043.66
2023-02-21T12:45:57.362Z,98038.22
2023-02-21T12:47:13.675Z,98040.66
2023-02-21T12:48:19.644Z,98041.00
2023-02-21T12:49:22.627Z,98045.34
2023-02-21T12:50:39.109Z,98031.16
2023-02-21T12:51:50.111Z,98021.97
2023-02-21T12:53:11.551Z,98022.44
2023-02-21T12:54:34.970Z,98024.50
2023-02-21T12:55:45.980Z,98018.81
2023-02-21T12:56:58.744Z,98015.78
2023-02-21T12:58:25.408Z,98014.72
2023-02-21T12:59:54.571Z,98006.44
2023-02-21T13:01:31.084Z,98002.03
2023-02-21T13:02:50.982Z,98012.25
2023-02-21T13:04:05.605Z,98011.09
2023-02-21T13:05:15.268Z,98019.06
2023-02-21T13:06:31.675Z,98017.25
2023-02-21T13:08:04.412Z,98007.50
2023-02-21T13:09:18.147Z,98019.87
2023-02-21T13:10:50.870Z,98010.88
2023-02-21T13:12:01.034Z,98012.31
2023-02-21T13:13:12.263Z,98011.34
2023-02-21T13:14:19.815Z,98011.34
2023-02-21T13:15:26.214Z,98023.56
2023-02-21T13:16:29.384Z,98009.72
2023-02-21T13:17:32.727Z,98007.69
2023-02-21T13:18:47.583Z,98003.31
2023-02-21T13:19:56.374Z,98007.09
2023-02-21T13:21:05.793Z,98013.16
2023-02-21T13:22:56.366Z,98018.00
2023-02-21T13:24:37.839Z,98020.88
2023-02-21T13:26:06.640Z,98013.50
2023-02-21T13:27:47.124Z,98011.19
2023-02-21T13:28:57.509Z,98012.19
2023-02-21T13:30:15.379Z,98006.41
2023-02-21T13:31:37.467Z,98009.50
2023-02-21T13:32:50.234Z,98012.63
2023-02-21T13:33:59.999Z,97997.00
2023-02-21T13:35:07.943Z,98010.56
2023-02-21T13:36:28.993Z,98013.09
2023-02-21T13:37:33.439Z,98011.44
2023-02-21T13:38:38.159Z,98002.47
2023-02-21T13:39:47.081Z,98017.00
2023-02-21T13:41:02.957Z,98014.38
2023-02-21T13:42:09.642Z,98009.19
2023-02-21T13:43:29.670Z,98000.16
2023-02-21T13:44:37.460Z,98005.50
2023-02-21T13:45:41.651Z,98006.00
2023-02-21T13:46:45.646Z,98006.59
2023-02-21T13:47:54.226Z,98005.22
2023-02-21T13:49:34.482Z,98000.25
2023-02-21T13:50:38.486Z,98014.63
2023-02-21T13:51:56.439Z,98010.22
2023-02-21T13:53:09.238Z,98017.47